Roosevelt, New York
Current Conditions -  °F | °C
As of 5:53 AM on Thursday 18 Dec 2014 (Local Time) from KFRG Reporting Station
Clear Clear  
Wind Chill: 30°   Ceiling: Unl
Heat Index: 38°   Visibility: 10mi
Dew Point: 24°   Wind: 13mph
Humidity: 57%   Direction: 300°WNW
Pressure: 29.91"   Gusts: 20mph
Location:  40.68°N, 73.59°W
Report Text: KFRG 181053Z AUTO 30011G17KT 10SM CLR 03/M04 A2991 RMK AO2 SLP130 T00331044
Loading
Personal Weather Stations






























Interactive Weather Map New forecast layout! Learn more

10-Day Weather Forecast

Advertisements
Track Severe Weather on mobile